Time;durP1;ratioP1;P1;durP2;ratioP2;P2;SDS_P1;SDS_P2;PMS_P1;PMS_P2;Temp;Humidity;BMP_temperature;BMP_pressure;BME280_temperature;BME280_humidity;BME280_pressure;Samples;Min_cycle;Max_cycle;Signal;HPM_P1;HPM_P2
2022/10/13 00:01:09;;;;;;;29.60;20.10;;;;;;;9.33;100.00;100916.78;5046918;28;20053;-79
2022/10/13 00:03:38;;;;;;;33.80;21.38;;;;;;;9.36;100.00;100929.91;5048261;28;20112;-77
2022/10/13 00:06:07;;;;;;;35.45;22.95;;;;;;;9.34;100.00;100929.09;5044334;28;20113;-73
2022/10/13 00:08:35;;;;;;;34.25;22.23;;;;;;;9.31;100.00;100924.78;5042979;28;20136;-76
2022/10/13 00:11:09;;;;;;;33.97;20.88;;;;;;;9.30;100.00;100936.25;5045969;28;20068;-73
2022/10/13 00:13:36;;;;;;;32.08;20.90;;;;;;;9.27;100.00;100938.16;5046812;28;20493;-76
2022/10/13 00:16:03;;;;;;;30.17;20.70;;;;;;;9.21;100.00;100938.34;5040814;28;20053;-76
2022/10/13 00:18:29;;;;;;;34.20;21.02;;;;;;;9.16;100.00;100946.41;5041917;28;20364;-77
2022/10/13 00:20:56;;;;;;;31.27;19.70;;;;;;;9.06;100.00;100924.72;5023286;28;20378;-74
2022/10/13 00:23:23;;;;;;;29.20;19.85;;;;;;;9.04;100.00;100921.25;5048748;28;20079;-75
2022/10/13 00:25:50;;;;;;;28.98;19.80;;;;;;;9.06;100.00;100937.06;5045132;28;20419;-76
2022/10/13 00:28:19;;;;;;;32.08;20.30;;;;;;;8.84;100.00;100917.50;5043898;28;20041;-78
2022/10/13 00:30:46;;;;;;;29.30;20.77;;;;;;;8.87;100.00;100933.28;5044041;28;20048;-71
2022/10/13 00:33:13;;;;;;;30.52;20.45;;;;;;;8.75;100.00;100939.81;5045351;28;20135;-78
2022/10/13 00:35:42;;;;;;;32.10;20.23;;;;;;;8.79;100.00;100942.31;5043665;28;20132;-76
2022/10/13 00:38:09;;;;;;;27.35;18.60;;;;;;;8.81;100.00;100941.41;5043838;28;20061;-74
2022/10/13 00:40:51;;;;;;;28.40;19.75;;;;;;;8.78;100.00;100939.72;5047577;28;20052;-76
2022/10/13 00:43:24;;;;;;;34.33;20.45;;;;;;;8.69;100.00;100924.13;5051936;28;20041;-77
2022/10/13 00:45:51;;;;;;;29.70;19.88;;;;;;;8.76;100.00;100946.81;5044234;28;20044;-76
2022/10/13 00:48:24;;;;;;;28.95;19.45;;;;;;;8.67;100.00;100947.94;5046450;28;20063;-75
2022/10/13 00:50:51;;;;;;;29.85;20.90;;;;;;;8.51;100.00;100930.84;5037682;28;20059;-73
2022/10/13 00:53:22;;;;;;;29.35;18.98;;;;;;;8.55;100.00;100931.63;5046659;28;20467;-75
2022/10/13 00:55:51;;;;;;;28.20;18.17;;;;;;;8.58;100.00;100934.19;5046444;28;20048;-74
2022/10/13 00:58:22;;;;;;;31.83;19.15;;;;;;;8.58;100.00;100940.31;5044267;28;20056;-74
2022/10/13 01:00:50;;;;;;;27.83;18.70;;;;;;;8.60;100.00;100930.59;5042405;28;20056;-73
2022/10/13 01:03:20;;;;;;;30.35;18.88;;;;;;;8.55;100.00;100932.47;5044938;28;20512;-71
2022/10/13 01:05:49;;;;;;;33.65;19.73;;;;;;;8.42;100.00;100929.34;5052240;28;20040;-74
2022/10/13 01:08:17;;;;;;;32.88;18.25;;;;;;;8.32;100.00;100938.47;5046937;28;20051;-76
2022/10/13 01:10:57;;;;;;;29.85;19.58;;;;;;;8.23;100.00;100936.03;5047839;28;20053;-76
2022/10/13 01:13:49;;;;;;;24.77;18.38;;;;;;;8.01;100.00;100909.44;5045182;28;20524;-74
2022/10/13 01:16:29;;;;;;;27.67;18.98;;;;;;;8.08;100.00;100939.09;5051909;28;20055;-76
2022/10/13 01:19:21;;;;;;;28.13;18.70;;;;;;;8.01;100.00;100938.44;5056495;28;20059;-73
2022/10/13 01:22:09;;;;;;;28.75;18.75;;;;;;;8.08;100.00;100931.19;5051238;28;20469;-71
2022/10/13 01:24:46;;;;;;;27.25;18.52;;;;;;;8.09;100.00;100930.28;5057005;28;20123;-75
2022/10/13 01:27:25;;;;;;;28.77;19.00;;;;;;;8.04;100.00;100932.19;5060290;28;20135;-74
2022/10/13 01:30:03;;;;;;;24.75;17.23;;;;;;;7.91;100.00;100925.53;5061136;28;20088;-74
2022/10/13 01:32:53;;;;;;;28.38;18.27;;;;;;;7.79;100.00;100921.47;5058570;28;20053;-74
2022/10/13 01:35:31;;;;;;;25.20;18.20;;;;;;;7.81;100.00;100929.34;5059054;28;20044;-72
2022/10/13 01:38:06;;;;;;;25.27;18.30;;;;;;;7.79;100.00;100920.59;5061470;28;20176;-76
2022/10/13 01:40:36;;;;;;;26.92;19.63;;;;;;;7.74;100.00;100924.22;5047001;28;20071;-72
2022/10/13 01:43:16;;;;;;;28.90;19.60;;;;;;;7.73;100.00;100925.13;5047562;28;20238;-78
2022/10/13 01:45:57;;;;;;;27.85;17.88;;;;;;;7.74;100.00;100933.88;5040776;28;20049;-72
2022/10/13 01:48:25;;;;;;;25.67;18.13;;;;;;;7.65;100.00;100923.59;5040897;28;20045;-72
2022/10/13 01:50:53;;;;;;;27.75;19.10;;;;;;;7.71;100.00;100934.00;5040789;28;20033;-78
2022/10/13 01:53:20;;;;;;;29.55;19.55;;;;;;;7.68;100.00;100910.34;5043262;28;20053;-77
2022/10/13 01:55:56;;;;;;;29.00;19.92;;;;;;;7.63;100.00;100896.41;5042611;28;20111;-75
2022/10/13 01:58:31;;;;;;;32.28;21.00;;;;;;;7.73;100.00;100908.44;5043167;28;20076;-76
2022/10/13 02:01:12;;;;;;;31.92;20.63;;;;;;;7.77;100.00;100912.72;5042532;28;20080;-74
2022/10/13 02:03:59;;;;;;;28.73;19.67;;;;;;;7.81;100.00;100911.75;5045095;28;20666;-75
2022/10/13 02:06:31;;;;;;;34.63;20.15;;;;;;;7.84;100.00;100916.94;5044450;28;20052;-73
2022/10/13 02:09:11;;;;;;;33.70;20.75;;;;;;;7.81;100.00;100903.84;5044247;28;20072;-71
2022/10/13 02:11:45;;;;;;;33.00;21.07;;;;;;;7.82;100.00;100899.41;5048763;28;20053;-74
2022/10/13 02:14:26;;;;;;;31.33;20.65;;;;;;;7.86;100.00;100909.84;5051240;28;20049;-76
2022/10/13 02:16:54;;;;;;;30.75;20.83;;;;;;;7.93;100.00;100910.53;5045374;28;20469;-75
2022/10/13 02:19:22;;;;;;;34.15;21.65;;;;;;;7.96;100.00;100900.75;5040617;28;20083;-75
2022/10/13 02:21:51;;;;;;;32.83;21.65;;;;;;;8.00;100.00;100894.50;5041654;28;20406;-75
2022/10/13 02:24:17;;;;;;;29.30;19.25;;;;;;;8.14;100.00;100887.97;5048000;28;20057;-75
2022/10/13 02:26:44;;;;;;;31.70;20.75;;;;;;;8.07;100.00;100871.44;5049914;28;20055;-74
2022/10/13 02:29:16;;;;;;;28.05;20.17;;;;;;;8.15;100.00;100882.66;5041745;28;20059;-74
2022/10/13 02:31:43;;;;;;;30.38;21.15;;;;;;;8.12;100.00;100880.09;5049626;28;20057;-73
2022/10/13 02:34:11;;;;;;;25.92;19.13;;;;;;;8.20;100.00;100882.50;5047254;28;20538;-75
2022/10/13 02:36:38;;;;;;;25.90;19.02;;;;;;;8.28;100.00;100886.66;5042924;28;20049;-74
2022/10/13 02:39:07;;;;;;;30.52;20.05;;;;;;;8.28;100.00;100889.28;5047219;28;20053;-75
2022/10/13 02:41:34;;;;;;;31.30;19.70;;;;;;;8.27;100.00;100884.06;5048691;28;20052;-75
2022/10/13 02:44:00;;;;;;;31.15;19.88;;;;;;;8.27;100.00;100878.78;5047492;28;20489;-75
2022/10/13 02:46:27;;;;;;;34.78;20.05;;;;;;;8.30;100.00;100886.59;5044333;28;20494;-75
2022/10/13 02:48:54;;;;;;;35.15;21.42;;;;;;;8.27;100.00;100884.91;5051585;28;20060;-75
2022/10/13 02:51:20;;;;;;;34.65;20.80;;;;;;;8.32;100.00;100882.19;5040218;28;20497;-74
2022/10/13 02:53:47;;;;;;;37.25;21.70;;;;;;;8.32;100.00;100882.19;5046117;28;20051;-75
2022/10/13 02:56:14;;;;;;;46.97;22.48;;;;;;;8.19;100.00;100854.38;5044506;28;20041;-75
2022/10/13 02:58:41;;;;;;;50.42;24.58;;;;;;;8.40;100.00;100894.22;5044503;28;20106;-74
2022/10/13 03:01:10;;;;;;;60.00;24.05;;;;;;;8.33;100.00;100870.72;5043133;28;20461;-76
2022/10/13 03:03:38;;;;;;;70.65;26.52;;;;;;;8.44;100.00;100887.09;5048704;28;20041;-74
2022/10/13 03:06:05;;;;;;;69.85;26.33;;;;;;;8.39;100.00;100873.16;5045983;28;20450;-75
2022/10/13 03:08:34;;;;;;;81.80;28.20;;;;;;;8.41;100.00;100876.63;5044615;28;20725;-75
2022/10/13 03:11:00;;;;;;;69.45;26.30;;;;;;;8.38;100.00;100868.78;5044933;28;20048;-72
2022/10/13 03:13:27;;;;;;;80.93;27.60;;;;;;;8.37;100.00;100867.06;5047291;28;20135;-76
2022/10/13 03:15:53;;;;;;;81.72;29.77;;;;;;;8.47;100.00;100881.72;5043412;28;20054;-74
2022/10/13 03:18:21;;;;;;;73.95;28.88;;;;;;;8.45;100.00;100875.63;5044648;28;20049;-75
2022/10/13 03:20:56;;;;;;;67.40;26.35;;;;;;;8.44;100.00;100873.88;5047298;28;20041;-75
2022/10/13 03:23:22;;;;;;;95.95;30.58;;;;;;;8.44;100.00;100871.25;5046067;28;20045;-75
2022/10/13 03:25:49;;;;;;;89.07;30.73;;;;;;;8.46;100.00;100877.34;5045157;28;20049;-76
2022/10/13 03:28:16;;;;;;;100.82;30.35;;;;;;;8.46;100.00;100866.78;5047730;28;20037;-77
2022/10/13 03:30:42;;;;;;;90.13;30.90;;;;;;;8.40;100.00;100854.63;5040474;28;20074;-71
2022/10/13 03:33:09;;;;;;;90.22;30.58;;;;;;;8.47;100.00;100849.19;5051254;28;20061;-76
2022/10/13 03:35:36;;;;;;;70.47;28.20;;;;;;;8.46;100.00;100853.59;5039042;28;20037;-77
2022/10/13 03:38:02;;;;;;;72.00;29.20;;;;;;;8.50;100.00;100865.75;5042875;28;20052;-75
2022/10/13 03:40:29;;;;;;;65.75;27.52;;;;;;;8.36;100.00;100849.50;5041729;28;20056;-74
2022/10/13 03:42:55;;;;;;;69.05;28.80;;;;;;;8.33;100.00;100839.91;5045128;28;20512;-74
2022/10/13 03:45:22;;;;;;;68.00;27.98;;;;;;;8.46;100.00;100863.28;5038308;28;20220;-74
2022/10/13 03:47:49;;;;;;;66.90;27.15;;;;;;;8.45;100.00;100851.88;5037177;28;20718;-75
2022/10/13 03:50:15;;;;;;;59.80;28.23;;;;;;;8.53;100.00;100862.16;5019276;28;20052;-72
2022/10/13 03:52:42;;;;;;;66.90;27.58;;;;;;;8.54;100.00;100867.41;5035991;28;21094;-75
2022/10/13 03:55:09;;;;;;;61.47;27.73;;;;;;;8.55;100.00;100874.41;5037849;28;20041;-75
2022/10/13 03:57:35;;;;;;;66.38;27.13;;;;;;;8.52;100.00;100868.34;5038907;28;20505;-73
2022/10/13 04:00:02;;;;;;;59.33;26.65;;;;;;;8.43;100.00;100859.81;5036825;28;20531;-75
2022/10/13 04:02:29;;;;;;;54.55;26.98;;;;;;;8.60;100.00;100874.28;5044905;28;20064;-73
2022/10/13 04:04:56;;;;;;;54.30;26.52;;;;;;;8.63;100.00;100880.34;5039926;28;20132;-77
2022/10/13 04:07:22;;;;;;;54.75;25.90;;;;;;;8.64;100.00;100868.88;5036344;28;20136;-75
2022/10/13 04:09:49;;;;;;;54.38;25.73;;;;;;;8.71;100.00;100874.81;5037831;28;20106;-76
2022/10/13 04:12:15;;;;;;;64.40;26.95;;;;;;;8.73;100.00;100867.69;5037006;28;20124;-77
2022/10/13 04:14:46;;;;;;;58.25;26.15;;;;;;;8.80;100.00;100874.53;5036617;28;20045;-73
2022/10/13 04:17:13;;;;;;;52.63;25.58;;;;;;;8.69;100.00;100859.00;5041211;28;20051;-75
2022/10/13 04:19:39;;;;;;;52.92;25.60;;;;;;;8.71;100.00;100854.53;5037832;28;20543;-76
2022/10/13 04:22:06;;;;;;;48.80;25.25;;;;;;;8.84;100.00;100869.97;5036216;28;20053;-73
2022/10/13 04:24:33;;;;;;;52.00;26.05;;;;;;;8.87;100.00;100875.16;5040354;28;20072;-76
2022/10/13 04:27:00;;;;;;;49.67;23.65;;;;;;;8.91;100.00;100874.16;5037082;28;20052;-74
2022/10/13 04:29:26;;;;;;;51.80;24.48;;;;;;;8.87;100.00;100865.47;5035888;28;20535;-78
2022/10/13 04:31:53;;;;;;;45.88;24.08;;;;;;;8.89;100.00;100868.94;5039902;28;20059;-77
2022/10/13 04:34:20;;;;;;;45.70;24.20;;;;;;;8.93;100.00;100865.28;5040388;28;20549;-76
2022/10/13 04:36:50;;;;;;;45.95;24.13;;;;;;;9.01;100.00;100875.59;5037104;28;20048;-75
2022/10/13 04:39:17;;;;;;;44.08;23.58;;;;;;;9.05;100.00;100882.50;5036541;28;20041;-78
2022/10/13 04:41:44;;;;;;;45.22;23.05;;;;;;;9.03;100.00;100871.97;5019264;28;20051;-76
2022/10/13 04:44:11;;;;;;;48.20;22.98;;;;;;;8.88;100.00;100837.28;5039424;28;20044;-76
2022/10/13 04:46:37;;;;;;;51.47;23.88;;;;;;;9.13;100.00;100880.47;5039377;28;20057;-76
2022/10/13 04:49:04;;;;;;;48.45;23.85;;;;;;;9.14;100.00;100879.53;5038480;28;20048;-77
2022/10/13 04:51:30;;;;;;;47.80;22.73;;;;;;;9.07;100.00;100868.34;5018109;28;20674;-73
2022/10/13 04:54:04;;;;;;;40.97;22.75;;;;;;;9.14;100.00;100868.97;5037815;28;20107;-73
2022/10/13 04:56:31;;;;;;;38.28;22.20;;;;;;;9.09;100.00;100870.94;5036916;28;20041;-75
2022/10/13 04:58:58;;;;;;;42.20;22.80;;;;;;;9.16;100.00;100875.06;5038682;28;20265;-74
2022/10/13 05:01:25;;;;;;;37.13;21.45;;;;;;;9.06;100.00;100858.69;5040663;28;20059;-77
2022/10/13 05:03:58;;;;;;;38.38;22.35;;;;;;;9.13;100.00;100868.09;5041443;28;20053;-77
2022/10/13 05:06:30;;;;;;;40.00;22.35;;;;;;;9.09;100.00;100849.78;5036049;28;20481;-74
2022/10/13 05:08:57;;;;;;;34.28;20.50;;;;;;;9.09;100.00;100858.59;5042796;28;20055;-75
2022/10/13 05:11:25;;;;;;;43.17;21.85;;;;;;;9.09;100.00;100839.22;5047121;28;20139;-79
2022/10/13 05:13:52;;;;;;;40.28;20.60;;;;;;;9.17;100.00;100860.94;5038543;28;20512;-73
2022/10/13 05:16:21;;;;;;;39.95;20.88;;;;;;;9.12;100.00;100847.91;5050116;28;20049;-75
2022/10/13 05:18:48;;;;;;;37.15;21.08;;;;;;;9.15;100.00;100853.06;5043376;28;20049;-74
2022/10/13 05:21:18;;;;;;;44.38;22.73;;;;;;;9.08;100.00;100845.41;5040997;28;20049;-77
2022/10/13 05:23:45;;;;;;;42.10;21.40;;;;;;;9.16;100.00;100840.72;5045022;28;20485;-76
2022/10/13 05:26:16;;;;;;;36.08;20.73;;;;;;;9.14;100.00;100838.13;5040417;28;20049;-78
2022/10/13 05:28:44;;;;;;;39.50;20.50;;;;;;;9.12;100.00;100834.72;5045189;28;20049;-76
2022/10/13 05:31:13;;;;;;;34.85;20.27;;;;;;;9.11;100.00;100830.34;5040296;28;20044;-75
2022/10/13 05:33:41;;;;;;;37.67;20.73;;;;;;;9.04;100.00;100822.66;5042592;28;20061;-77
2022/10/13 05:36:13;;;;;;;37.72;20.80;;;;;;;9.16;100.00;100840.72;5038910;28;20061;-74
2022/10/13 05:38:40;;;;;;;40.22;21.58;;;;;;;9.21;100.00;100845.88;5044374;28;20049;-74
2022/10/13 05:41:09;;;;;;;43.88;22.70;;;;;;;9.23;100.00;100842.25;5043352;28;20051;-75
2022/10/13 05:43:38;;;;;;;39.83;22.08;;;;;;;9.24;100.00;100832.56;5042566;28;20051;-76
2022/10/13 05:46:05;;;;;;;48.50;24.92;;;;;;;9.26;100.00;100836.88;5043181;28;20629;-75
2022/10/13 05:48:32;;;;;;;47.95;23.60;;;;;;;9.30;100.00;100842.88;5048170;28;20119;-76
2022/10/13 05:51:00;;;;;;;50.70;23.92;;;;;;;9.31;100.00;100834.03;5048131;28;20049;-76
2022/10/13 05:53:30;;;;;;;50.33;24.30;;;;;;;9.27;100.00;100822.75;5046691;28;20049;-77
2022/10/13 05:56:05;;;;;;;46.38;22.63;;;;;;;9.20;100.00;100797.44;5049132;28;20048;-75
2022/10/13 05:58:39;;;;;;;43.53;22.67;;;;;;;9.36;100.00;100819.78;5048900;28;20120;-76
2022/10/13 06:01:08;;;;;;;47.42;22.67;;;;;;;9.34;100.00;100812.81;5045765;28;20082;-75
2022/10/13 06:03:36;;;;;;;46.65;23.45;;;;;;;9.35;100.00;100823.31;5042095;28;20069;-75
2022/10/13 06:06:03;;;;;;;44.10;22.20;;;;;;;9.24;100.00;100808.78;5048477;28;20040;-75
2022/10/13 06:08:29;;;;;;;42.70;22.30;;;;;;;9.34;100.00;100813.66;5050052;28;20059;-75
2022/10/13 06:10:56;;;;;;;37.30;20.83;;;;;;;9.42;100.00;100819.56;5043985;28;20136;-75
2022/10/13 06:13:23;;;;;;;38.13;20.35;;;;;;;9.32;100.00;100798.78;5049402;28;20051;-78
2022/10/13 06:15:49;;;;;;;38.63;21.33;;;;;;;9.36;100.00;100813.63;5048357;28;20051;-77
2022/10/13 06:18:16;;;;;;;35.70;20.02;;;;;;;9.36;100.00;100826.84;5053512;28;20049;-78
2022/10/13 06:20:42;;;;;;;42.08;20.95;;;;;;;9.35;100.00;100825.97;5052108;28;20045;-72
2022/10/13 06:23:09;;;;;;;41.03;22.27;;;;;;;9.35;100.00;100825.09;5048536;28;20044;-75
2022/10/13 06:25:36;;;;;;;38.70;21.25;;;;;;;9.30;100.00;100834.97;5049307;28;20480;-76
2022/10/13 06:28:02;;;;;;;44.85;23.40;;;;;;;9.34;100.00;100844.53;5029503;28;20500;-75
2022/10/13 06:30:29;;;;;;;45.80;23.50;;;;;;;9.33;100.00;100843.66;5048951;28;20128;-76
2022/10/13 06:32:55;;;;;;;51.63;24.80;;;;;;;9.33;100.00;100848.94;5049184;28;20402;-76
2022/10/13 06:35:22;;;;;;;47.70;24.80;;;;;;;9.34;100.00;100845.38;5049240;28;20947;-76
2022/10/13 06:37:49;;;;;;;55.95;25.90;;;;;;;9.32;100.00;100825.19;5028788;28;20797;-75
2022/10/13 06:40:16;;;;;;;61.25;27.63;;;;;;;9.30;100.00;100816.47;5044495;28;20140;-76
2022/10/13 06:42:48;;;;;;;65.05;28.67;;;;;;;9.44;100.00;100836.22;5050718;28;20045;-71
2022/10/13 06:45:14;;;;;;;66.57;29.45;;;;;;;9.42;100.00;100838.06;5044511;28;20063;-76
2022/10/13 06:47:41;;;;;;;74.22;30.50;;;;;;;9.33;100.00;100821.66;5044586;28;20061;-74
2022/10/13 06:50:08;;;;;;;71.22;28.20;;;;;;;9.33;100.00;100843.66;5045486;28;20045;-76
2022/10/13 06:52:35;;;;;;;57.15;27.55;;;;;;;9.28;100.00;100839.47;5044232;28;20049;-75
2022/10/13 06:55:02;;;;;;;64.57;27.35;;;;;;;9.30;100.00;100849.03;5044875;28;20092;-70
2022/10/13 06:57:29;;;;;;;65.13;28.25;;;;;;;9.28;100.00;100848.25;5045874;28;20053;-76
2022/10/13 06:59:56;;;;;;;70.50;29.88;;;;;;;9.34;100.00;100855.97;5041394;28;20339;-77
2022/10/13 07:02:22;;;;;;;68.68;27.88;;;;;;;9.38;100.00;100841.72;5042761;28;20049;-77
2022/10/13 07:04:49;;;;;;;62.05;27.65;;;;;;;9.52;100.00;100848.31;5045668;28;20045;-76
2022/10/13 07:07:15;;;;;;;64.45;27.23;;;;;;;9.50;100.00;100825.44;5044679;28;20049;-78
2022/10/13 07:09:42;;;;;;;68.30;27.48;;;;;;;9.67;100.00;100843.31;5048936;28;20044;-76
2022/10/13 07:12:09;;;;;;;75.78;29.75;;;;;;;9.68;100.00;100849.47;5043282;28;20405;-75
2022/10/13 07:14:35;;;;;;;69.38;28.60;;;;;;;9.62;100.00;100842.63;5040657;28;20052;-74
2022/10/13 07:17:07;;;;;;;73.22;29.60;;;;;;;9.61;100.00;100853.25;5023852;28;20126;-76
2022/10/13 07:19:33;;;;;;;66.88;30.00;;;;;;;9.41;100.00;100817.84;5035491;28;20423;-77
2022/10/13 07:22:00;;;;;;;71.85;28.85;;;;;;;9.73;100.00;100851.06;5038102;28;20137;-77
2022/10/13 07:24:26;;;;;;;56.53;28.15;;;;;;;9.85;100.00;100836.50;5040217;28;20053;-79
2022/10/13 07:26:53;;;;;;;56.45;28.75;;;;;;;10.03;100.00;100843.78;5035582;28;20063;-77
2022/10/13 07:29:19;;;;;;;52.22;26.77;;;;;;;10.18;100.00;100824.69;5041643;28;20512;-78
2022/10/13 07:31:46;;;;;;;51.55;26.55;;;;;;;10.32;100.00;100823.28;5036432;28;20054;-77
2022/10/13 07:34:14;;;;;;;52.70;25.55;;;;;;;10.30;100.00;100796.00;5047036;28;20049;-77
2022/10/13 07:36:41;;;;;;;47.90;25.08;;;;;;;10.61;100.00;100825.66;5041728;28;20053;-74
2022/10/13 07:39:08;;;;;;;50.28;26.08;;;;;;;10.71;100.00;100820.81;5046371;28;20041;-72
2022/10/13 07:41:36;;;;;;;54.17;27.50;;;;;;;10.68;100.00;100786.53;5039349;28;20614;-71
2022/10/13 07:44:02;;;;;;;49.08;24.67;;;;;;;10.96;100.00;100815.41;5038301;28;20045;-77
2022/10/13 07:46:29;;;;;;;44.80;24.77;;;;;;;10.92;100.00;100801.41;5036167;28;20036;-76
2022/10/13 07:48:55;;;;;;;52.20;24.95;;;;;;;11.02;100.00;100820.44;5040556;28;20042;-77
2022/10/13 07:51:22;;;;;;;50.75;25.25;;;;;;;11.00;100.00;100827.59;5038415;28;20063;-78
2022/10/13 07:53:49;;;;;;;48.85;25.48;;;;;;;10.92;100.00;100835.00;5049155;28;20309;-76
2022/10/13 07:56:16;;;;;;;51.25;24.50;;;;;;;10.89;100.00;100822.72;5044437;28;20045;-75
2022/10/13 07:58:45;;;;;;;46.63;24.08;;;;;;;10.92;100.00;100832.34;5041980;28;20046;-75
2022/10/13 08:01:13;;;;;;;52.85;26.73;;;;;;;10.87;100.00;100819.28;5045357;28;20063;-75
2022/10/13 08:03:40;;;;;;;57.08;26.00;;;;;;;10.90;100.00;100829.75;5039028;28;20044;-72
2022/10/13 08:06:13;;;;;;;52.67;25.65;;;;;;;10.89;100.00;100831.53;5042808;28;20057;-77
2022/10/13 08:08:39;;;;;;;55.10;26.40;;;;;;;10.95;100.00;100838.38;5040121;28;20057;-75
2022/10/13 08:11:10;;;;;;;52.00;27.95;;;;;;;10.98;100.00;100840.91;5045765;28;20052;-77
2022/10/13 08:13:41;;;;;;;51.40;27.52;;;;;;;11.05;100.00;100828.25;5035596;28;20057;-74
2022/10/13 08:16:09;;;;;;;47.50;27.08;;;;;;;11.10;100.00;100829.78;5035028;28;21745;-75
2022/10/13 08:18:35;;;;;;;49.30;27.17;;;;;;;11.06;100.00;100836.13;5033898;28;20061;-76
2022/10/13 08:21:02;;;;;;;47.72;25.70;;;;;;;10.95;100.00;100818.97;5036180;28;20045;-77
2022/10/13 08:23:50;;;;;;;47.58;25.38;;;;;;;11.05;100.00;100822.94;5037468;28;20036;-76
2022/10/13 08:26:20;;;;;;;50.65;26.25;;;;;;;11.11;100.00;100825.34;5040615;28;20499;-75
2022/10/13 08:28:47;;;;;;;44.47;25.23;;;;;;;11.15;100.00;100822.50;5034350;28;20053;-73
2022/10/13 08:31:34;;;;;;;46.58;25.13;;;;;;;11.14;100.00;100828.75;5036142;28;20754;-75
2022/10/13 08:34:01;;;;;;;47.65;24.30;;;;;;;11.06;100.00;100829.97;5035838;28;20171;-77
2022/10/13 08:36:28;;;;;;;50.95;25.67;;;;;;;11.08;100.00;100822.81;5034643;28;20492;-76
2022/10/13 08:38:56;;;;;;;46.97;25.90;;;;;;;11.18;100.00;100834.75;5035700;28;20041;-74
2022/10/13 08:41:29;;;;;;;44.53;24.50;;;;;;;11.22;100.00;100825.75;5034292;28;20053;-74
2022/10/13 08:44:05;;;;;;;40.78;23.73;;;;;;;11.26;100.00;100795.53;5036494;28;20495;-76
2022/10/13 08:47:11;;;;;;;43.88;25.05;;;;;;;11.59;100.00;100796.69;5036255;28;20064;-75
2022/10/13 08:49:40;;;;;;;39.42;22.77;;;;;;;11.86;100.00;100791.97;5038822;28;20060;-74
2022/10/13 08:52:21;;;;;;;42.05;24.15;;;;;;;12.10;100.00;100797.09;5035758;28;20045;-75
2022/10/13 08:54:49;;;;;;;44.15;25.65;;;;;;;12.03;100.00;100793.84;5033060;28;20118;-76
2022/10/13 08:57:17;;;;;;;45.67;25.38;;;;;;;11.99;100.00;100807.31;5033637;28;20093;-73
2022/10/13 08:59:45;;;;;;;49.92;26.60;;;;;;;11.81;100.00;100793.94;5030360;28;21978;-77
2022/10/13 09:02:30;;;;;;;51.28;26.90;;;;;;;11.87;100.00;100819.38;5033003;28;20186;-76
2022/10/13 09:05:02;;;;;;;48.30;27.70;;;;;;;11.63;100.00;100799.22;5032334;28;20052;-78
2022/10/13 09:07:34;;;;;;;52.85;28.92;;;;;;;11.60;100.00;100830.25;5043444;28;20049;-80
2022/10/13 09:10:00;;;;;;;54.28;28.27;;;;;;;11.46;100.00;100805.28;5051743;28;20049;-74
2022/10/13 09:12:27;;;;;;;52.60;29.50;;;;;;;11.29;100.00;100794.53;5037367;28;20132;-77
2022/10/13 09:15:02;;;;;;;56.67;28.73;;;;;;;11.50;100.00;100823.63;5037711;28;20045;-78
2022/10/13 09:17:29;;;;;;;48.67;27.98;;;;;;;11.62;100.00;100822.22;5042324;28;20049;-75
2022/10/13 09:20:06;;;;;;;53.42;28.17;;;;;;;11.58;100.00;100797.63;5039074;28;20135;-76
2022/10/13 09:22:39;;;;;;;50.33;28.73;;;;;;;11.72;100.00;100812.91;5039147;28;20053;-73
2022/10/13 09:25:05;;;;;;;50.88;29.05;;;;;;;11.72;100.00;100827.97;5047045;28;20061;-76
2022/10/13 09:27:41;;;;;;;52.13;28.08;;;;;;;11.58;100.00;100797.63;5042333;28;20148;-74
2022/10/13 09:30:30;;;;;;;55.88;29.60;;;;;;;11.71;100.00;100827.13;5041514;28;20382;-75
2022/10/13 09:33:03;;;;;;;56.65;28.60;;;;;;;11.62;100.00;100802.81;5044769;28;20053;-75
2022/10/13 09:35:33;;;;;;;54.40;30.75;;;;;;;11.82;100.00;100824.00;5039505;28;20493;-76
2022/10/13 09:38:04;;;;;;;50.33;29.10;;;;;;;11.86;100.00;100822.94;5041989;28;20139;-75
2022/10/13 09:40:31;;;;;;;50.92;29.17;;;;;;;11.94;100.00;100828.78;5036616;28;20502;-76
2022/10/13 09:43:01;;;;;;;53.47;29.60;;;;;;;11.99;100.00;100829.41;5036425;28;20076;-78
2022/10/13 09:45:29;;;;;;;52.15;29.10;;;;;;;12.02;100.00;100817.78;5035471;28;20049;-73
2022/10/13 09:48:02;;;;;;;53.67;28.33;;;;;;;12.06;100.00;100814.94;5043449;28;20115;-76
2022/10/13 09:50:30;;;;;;;50.28;27.80;;;;;;;12.15;100.00;100806.53;5040813;28;20513;-75
2022/10/13 09:53:28;;;;;;;50.83;29.15;;;;;;;12.26;100.00;100804.25;5042149;28;20047;-79
2022/10/13 09:56:07;;;;;;;55.30;29.25;;;;;;;12.21;100.00;100786.81;5036019;28;20055;-75
2022/10/13 09:58:38;;;;;;;63.80;31.20;;;;;;;12.29;100.00;100814.72;5042067;28;20059;-74
2022/10/13 10:01:08;;;;;;;58.70;30.52;;;;;;;12.36;100.00;100802.00;5036790;28;20057;-73
2022/10/13 10:03:37;;;;;;;63.38;32.42;;;;;;;12.50;100.00;100814.63;5034248;28;20373;-74
2022/10/13 10:06:13;;;;;;;62.28;32.50;;;;;;;12.54;100.00;100810.88;5041229;28;20099;-76
2022/10/13 10:09:02;;;;;;;61.05;32.25;;;;;;;12.55;100.00;100816.13;5039671;28;20053;-76
2022/10/13 10:11:40;;;;;;;59.63;31.27;;;;;;;12.44;100.00;100820.22;5042524;28;20044;-75
2022/10/13 10:14:21;;;;;;;57.00;31.27;;;;;;;12.53;100.00;100814.47;5031002;28;20312;-78
2022/10/13 10:17:03;;;;;;;54.63;29.50;;;;;;;12.67;100.00;100805.84;5041324;28;20041;-76
2022/10/13 10:19:45;;;;;;;55.13;29.75;;;;;;;12.82;100.00;100803.28;5040653;28;20048;-75
2022/10/13 10:22:19;;;;;;;51.97;28.15;;;;;;;12.86;100.00;100788.91;5035733;28;20053;-74
2022/10/13 10:24:54;;;;;;;49.90;27.45;;;;;;;13.18;100.00;100807.72;5038283;28;20059;-74
2022/10/13 10:27:28;;;;;;;56.85;29.30;;;;;;;13.23;100.00;100816.31;5044508;28;20150;-78
2022/10/13 10:30:02;;;;;;;52.95;29.90;;;;;;;13.08;100.00;100806.41;5047912;28;20045;-76
2022/10/13 10:32:53;;;;;;;49.13;28.45;;;;;;;13.10;100.00;100801.88;5044843;28;20063;-78
2022/10/13 10:35:51;;;;;;;44.60;26.42;;;;;;;13.04;100.00;100768.50;5055405;28;20587;-76
2022/10/13 10:38:28;;;;;;;47.75;28.05;;;;;;;13.18;100.00;100754.53;5051555;28;20117;-77
2022/10/13 10:41:25;;;;;;;48.42;27.38;;;;;;;13.45;100.00;100784.16;5050128;28;20059;-78
2022/10/13 10:44:09;;;;;;;44.13;27.02;;;;;;;13.58;100.00;100778.09;5041482;28;20140;-74
2022/10/13 10:46:44;;;;;;;44.53;27.35;;;;;;;13.74;100.00;100761.31;5038857;28;20045;-76
2022/10/13 10:49:17;;;;;;;48.83;28.80;;;;;;;13.77;100.00;100738.03;5035028;28;20045;-74
2022/10/13 10:51:44;;;;;;;52.80;28.45;;;;;;;14.03;99.60;100763.22;5039614;28;20099;-76
2022/10/13 10:54:30;;;;;;;48.20;27.58;;;;;;;14.13;97.19;100767.13;5040646;28;20063;-75
2022/10/13 10:57:08;;;;;;;51.30;29.10;;;;;;;14.11;97.57;100762.81;5038465;28;20057;-76
2022/10/13 10:59:52;;;;;;;47.60;27.73;;;;;;;14.11;97.64;100758.34;5044299;28;20128;-80
2022/10/13 11:02:40;;;;;;;48.38;28.73;;;;;;;14.21;97.88;100750.69;5050527;28;20460;-76
2022/10/13 11:05:06;;;;;;;44.50;26.42;;;;;;;14.24;95.91;100750.53;5044329;28;20143;-76
2022/10/13 11:07:33;;;;;;;45.88;26.58;;;;;;;14.28;96.31;100746.75;5047234;28;20055;-76
2022/10/13 11:10:17;;;;;;;46.35;27.92;;;;;;;14.01;97.61;100739.34;5037900;28;20077;-78
2022/10/13 11:13:05;;;;;;;44.90;25.67;;;;;;;14.01;99.24;100746.47;5040594;28;20563;-78
2022/10/13 11:15:44;;;;;;;45.97;26.98;;;;;;;13.96;98.53;100740.56;5041683;28;20041;-77
2022/10/13 11:18:48;;;;;;;46.72;26.85;;;;;;;14.08;99.25;100734.53;5040705;28;20053;-75
2022/10/13 11:21:14;;;;;;;43.75;26.17;;;;;;;14.22;97.86;100726.63;5036826;28;20049;-75
2022/10/13 11:23:47;;;;;;;41.75;24.52;;;;;;;14.31;97.32;100717.28;5035747;28;20048;-74